Terminal Aerodrome Forecast
Issued by NWS

Home | Current Version | Previous Version | Text Only | Print | Product List | Glossary On
Versions: 1 2 3 4 5 6 7 8 9 10 11 12 13 14 15 16 17 18 19 20 21 22 23
000
FTUS43 KAPX 230529
TAFAPN
TAF
KAPN 230529Z 2306/2406 VRB03KT 6SM BR SCT015 OVC025
     FM230900 26005KT 1SM BR OVC008
     FM231200 28007KT 3SM -DZ BR OVC008
     FM231500 33011G20KT P6SM OVC015
     FM231800 34012G21KT P6SM OVC035
     FM240100 36006KT P6SM OVC040=

USA.gov is the U.S. government's official web portal to all federal, state and local government web resources and services.